Time,TemperatureF,DewpointF,PressureIn,WindDirection,WindDirectionDegrees,WindSpeedMPH,WindSpeedGustMPH,Humidity,HourlyPrecipIn,Conditions,Clouds,dailyrainin,SolarRadiationWatts/m^2,SoftwareType,DateUTC
2013-10-30 00:03:00,73.0,68.0,30.04,South,179,7.0,9.0,85,0.00,,,0.00,-31.000000,,2013-10-30 05:03:00,
2013-10-30 00:13:00,73.0,68.0,30.04,South,179,7.0,9.0,85,0.00,,,0.00,-31.000000,,2013-10-30 05:13:00,
2013-10-30 00:43:00,72.0,68.0,30.03,South,179,9.0,9.0,86,0.00,,,0.00,-28.000000,,2013-10-30 05:43:00,
2013-10-30 00:53:00,72.0,68.0,30.03,South,179,9.0,9.0,86,0.00,,,0.00,-28.000000,,2013-10-30 05:53:00,
2013-10-30 01:02:00,72.0,68.0,30.03,South,179,9.0,9.0,86,0.00,,,0.00,-28.000000,,2013-10-30 06:02:00,
2013-10-30 01:13:00,72.0,68.0,30.03,South,179,9.0,9.0,86,0.00,,,0.00,-28.000000,,2013-10-30 06:13:00,
2013-10-30 01:42:00,72.0,67.0,30.03,South,180,9.0,10.0,84,0.00,,,0.00,-9.000000,,2013-10-30 06:42:00,
2013-10-30 01:53:00,72.0,67.0,30.03,South,180,9.0,10.0,84,0.00,,,0.00,-9.000000,,2013-10-30 06:53:00,
2013-10-30 02:02:00,72.0,67.0,30.03,South,180,9.0,10.0,84,0.00,,,0.00,-9.000000,,2013-10-30 07:02:00,
2013-10-30 02:12:00,72.0,67.0,30.03,South,180,9.0,10.0,84,0.00,,,0.00,-9.000000,,2013-10-30 07:12:00,
2013-10-30 03:42:00,71.0,67.0,30.02,South,179,7.0,7.0,87,0.00,,,0.00,-53.000000,,2013-10-30 08:42:00,
2013-10-30 03:52:00,71.0,67.0,30.02,South,179,7.0,7.0,87,0.00,,,0.00,-53.000000,,2013-10-30 08:52:00,
2013-10-30 04:02:00,71.0,67.0,30.02,South,179,7.0,7.0,87,0.00,,,0.00,-53.000000,,2013-10-30 09:02:00,
2013-10-30 04:11:00,71.0,67.0,30.02,South,179,7.0,7.0,87,0.00,,,0.00,-53.000000,,2013-10-30 09:11:00,
2013-10-30 04:54:00,70.0,68.0,30.01,South,179,7.0,7.0,92,0.01,,,0.01,-57.000000,,2013-10-30 09:54:00,
2013-10-30 05:03:00,70.0,68.0,30.01,South,179,7.0,7.0,92,0.01,,,0.01,-57.000000,,2013-10-30 10:03:00,
2013-10-30 05:13:00,70.0,68.0,30.01,South,179,7.0,7.0,92,0.01,,,0.01,-57.000000,,2013-10-30 10:13:00,
2013-10-30 05:43:00,70.0,68.0,30.01,South,179,5.0,7.0,93,0.00,,,0.01,-33.000000,,2013-10-30 10:43:00,
2013-10-30 05:53:00,70.0,68.0,30.01,South,179,5.0,7.0,93,0.00,,,0.01,-33.000000,,2013-10-30 10:53:00,
2013-10-30 06:02:00,70.0,68.0,30.01,South,179,5.0,7.0,93,0.00,,,0.01,-33.000000,,2013-10-30 11:02:00,
2013-10-30 06:12:00,70.0,68.0,30.01,South,179,5.0,7.0,93,0.00,,,0.01,-33.000000,,2013-10-30 11:12:00,
2013-10-30 06:42:00,70.0,69.0,30.01,South,179,4.0,5.0,95,0.00,,,0.01,-32.000000,,2013-10-30 11:42:00,
2013-10-30 06:52:00,70.0,69.0,30.01,South,179,4.0,5.0,95,0.00,,,0.01,-32.000000,,2013-10-30 11:52:00,
2013-10-30 07:01:00,70.0,69.0,30.01,South,179,4.0,5.0,95,0.00,,,0.01,-32.000000,,2013-10-30 12:01:00,
2013-10-30 07:12:00,70.0,69.0,30.01,South,179,4.0,5.0,95,0.00,,,0.01,-32.000000,,2013-10-30 12:12:00,
2013-10-30 08:42:00,71.0,70.0,29.98,South,179,7.0,7.0,96,0.00,,,0.01,-22.000000,,2013-10-30 13:42:00,
2013-10-30 08:52:00,71.0,70.0,29.98,South,179,7.0,7.0,96,0.00,,,0.01,-22.000000,,2013-10-30 13:52:00,
2013-10-30 09:02:00,71.0,70.0,29.98,South,179,7.0,7.0,96,0.00,,,0.01,-22.000000,,2013-10-30 14:02:00,
2013-10-30 09:11:00,71.0,70.0,29.98,South,179,7.0,7.0,96,0.00,,,0.01,-22.000000,,2013-10-30 14:11:00,
2013-10-30 09:42:00,71.0,69.0,29.99,South,179,5.0,7.0,95,0.00,,,0.01,-17.000000,,2013-10-30 14:42:00,
2013-10-30 09:52:00,71.0,69.0,29.99,South,179,5.0,7.0,95,0.00,,,0.01,-17.000000,,2013-10-30 14:52:00,
2013-10-30 10:02:00,71.0,69.0,29.99,South,179,5.0,7.0,95,0.00,,,0.01,-17.000000,,2013-10-30 15:02:00,
2013-10-30 10:11:00,71.0,69.0,29.99,South,179,5.0,7.0,95,0.00,,,0.01,-17.000000,,2013-10-30 15:11:00,
2013-10-30 10:54:00,72.0,68.0,29.99,South,179,9.0,10.0,90,0.00,,,0.01,23.000000,,2013-10-30 15:54:00,
2013-10-30 11:03:00,72.0,68.0,29.99,South,179,9.0,10.0,90,0.00,,,0.01,23.000000,,2013-10-30 16:03:00,
2013-10-30 11:12:00,72.0,68.0,29.99,South,179,9.0,10.0,90,0.00,,,0.01,23.000000,,2013-10-30 16:12:00,
2013-10-30 12:42:00,69.0,67.0,29.96,South,179,9.0,14.0,93,0.01,,,0.04,-21.000000,,2013-10-30 17:42:00,
2013-10-30 12:52:00,69.0,67.0,29.96,South,179,9.0,14.0,93,0.01,,,0.04,-21.000000,,2013-10-30 17:52:00,
2013-10-30 13:02:00,69.0,67.0,29.96,South,179,9.0,14.0,93,0.01,,,0.04,-21.000000,,2013-10-30 18:02:00,
2013-10-30 13:12:00,69.0,67.0,29.96,South,179,9.0,14.0,93,0.01,,,0.04,-21.000000,,2013-10-30 18:12:00,
2013-10-30 13:52:00,68.0,66.0,29.97,South,179,10.0,10.0,93,0.00,,,0.04,-8.000000,,2013-10-30 18:52:00,
2013-10-30 14:01:00,68.0,66.0,29.97,South,179,10.0,10.0,93,0.00,,,0.04,-8.000000,,2013-10-30 19:01:00,
2013-10-30 14:11:00,68.0,66.0,29.97,South,179,10.0,10.0,93,0.00,,,0.04,-8.000000,,2013-10-30 19:11:00,
2013-10-30 14:42:00,68.0,66.0,29.93,South,179,7.0,9.0,92,0.01,,,0.05,-17.000000,,2013-10-30 19:42:00,
2013-10-30 14:52:00,68.0,66.0,29.93,South,179,7.0,9.0,92,0.01,,,0.05,-17.000000,,2013-10-30 19:52:00,
2013-10-30 15:02:00,68.0,66.0,29.93,South,179,7.0,9.0,92,0.01,,,0.05,-17.000000,,2013-10-30 20:02:00,
2013-10-30 15:12:00,68.0,66.0,29.93,South,179,7.0,9.0,92,0.01,,,0.05,-17.000000,,2013-10-30 20:12:00,
2013-10-30 15:42:00,68.0,66.0,29.92,South,180,12.0,12.0,94,0.01,,,0.06,2.000000,,2013-10-30 20:42:00,
2013-10-30 15:52:00,68.0,66.0,29.92,South,180,12.0,12.0,94,0.01,,,0.06,2.000000,,2013-10-30 20:52:00,
2013-10-30 16:01:00,68.0,66.0,29.92,South,180,12.0,12.0,94,0.01,,,0.06,2.000000,,2013-10-30 21:01:00,
2013-10-30 16:12:00,68.0,66.0,29.92,South,180,12.0,12.0,94,0.01,,,0.06,2.000000,,2013-10-30 21:12:00,
2013-10-30 16:43:00,68.0,67.0,29.89,South,181,7.0,7.0,95,0.00,,,0.06,-7.000000,,2013-10-30 21:43:00,
2013-10-30 16:53:00,68.0,67.0,29.89,South,181,7.0,7.0,95,0.00,,,0.06,-7.000000,,2013-10-30 21:53:00,
2013-10-30 17:04:00,68.0,67.0,29.89,South,181,7.0,7.0,95,0.00,,,0.06,-7.000000,,2013-10-30 22:04:00,
2013-10-30 17:13:00,68.0,67.0,29.89,South,181,7.0,7.0,95,0.00,,,0.06,-7.000000,,2013-10-30 22:13:00,
2013-10-30 17:43:00,67.0,66.0,29.89,South,180,5.0,7.0,97,0.01,,,0.07,-20.000000,,2013-10-30 22:43:00,
2013-10-30 17:54:00,67.0,66.0,29.89,South,180,5.0,7.0,97,0.01,,,0.07,-20.000000,,2013-10-30 22:54:00,
2013-10-30 18:03:00,67.0,66.0,29.89,South,180,5.0,7.0,97,0.01,,,0.07,-20.000000,,2013-10-30 23:03:00,
2013-10-30 18:12:00,67.0,66.0,29.89,South,180,5.0,7.0,97,0.01,,,0.07,-20.000000,,2013-10-30 23:12:00,
2013-10-30 18:42:00,67.0,66.0,29.89,South,180,5.0,7.0,97,0.00,,,0.07,-19.000000,,2013-10-30 23:42:00,
2013-10-30 18:53:00,67.0,66.0,29.89,South,180,5.0,7.0,97,0.00,,,0.07,-19.000000,,2013-10-30 23:53:00,
2013-10-30 19:02:00,67.0,66.0,29.89,South,180,5.0,7.0,97,0.00,,,0.07,-19.000000,,2013-10-31 00:02:00,
2013-10-30 19:11:00,67.0,66.0,29.89,South,180,5.0,7.0,97,0.00,,,0.07,-19.000000,,2013-10-31 00:11:00,
2013-10-30 19:42:00,65.0,64.0,29.87,South,180,7.0,7.0,96,0.00,,,0.07,-20.000000,,2013-10-31 00:42:00,
2013-10-30 19:52:00,65.0,64.0,29.87,South,180,7.0,7.0,96,0.00,,,0.07,-20.000000,,2013-10-31 00:52:00,
2013-10-30 20:02:00,65.0,64.0,29.87,South,180,7.0,7.0,96,0.00,,,0.07,-20.000000,,2013-10-31 01:02:00,
2013-10-30 20:12:00,65.0,64.0,29.87,South,180,7.0,7.0,96,0.00,,,0.07,-20.000000,,2013-10-31 01:12:00,
2013-10-30 20:42:00,65.0,64.0,29.90,South,180,7.0,7.0,97,0.00,,,0.07,-10.000000,,2013-10-31 01:42:00,
2013-10-30 20:53:00,65.0,64.0,29.90,South,180,7.0,7.0,97,0.00,,,0.07,-10.000000,,2013-10-31 01:53:00,
2013-10-30 21:02:00,65.0,64.0,29.90,South,180,7.0,7.0,97,0.00,,,0.07,-10.000000,,2013-10-31 02:02:00,
2013-10-30 21:12:00,65.0,64.0,29.90,South,180,7.0,7.0,97,0.00,,,0.07,-10.000000,,2013-10-31 02:12:00,
2013-10-30 22:11:00,65.0,65.0,29.90,South,181,7.0,7.0,97,0.00,,,0.07,-8.000000,,2013-10-31 03:11:00,
2013-10-30 23:43:00,66.0,65.0,29.82,South,180,5.0,7.0,99,0.00,,,0.07,-4.000000,,2013-10-31 04:43:00,
2013-10-30 23:54:00,66.0,65.0,29.82,South,180,5.0,7.0,99,0.00,,,0.07,-4.000000,,2013-10-31 04:54:00,